Time;durP1;ratioP1;P1;durP2;ratioP2;P2;SDS_P1;SDS_P2;PMS_P1;PMS_P2;Temp;Humidity;BMP_temperature;BMP_pressure;BME280_temperature;BME280_humidity;BME280_pressure;Samples;Min_cycle;Max_cycle;Signal;HPM_P1;HPM_P2
2023/10/09 00:02:54;;;;;;;8.50;3.00;;;14.10;38.90;;;;;;5086055;28;20440;-72
2023/10/09 00:05:24;;;;;;;5.63;2.50;;;14.10;39.80;;;;;;5085948;28;20418;-72
2023/10/09 00:07:55;;;;;;;6.25;2.92;;;14.10;39.90;;;;;;5086267;28;20416;-71
2023/10/09 00:10:21;;;;;;;7.90;2.95;;;14.10;40.00;;;;;;5086866;28;20907;-71
2023/10/09 00:12:49;;;;;;;6.40;2.60;;;14.10;40.40;;;;;;5087764;28;20480;-71
2023/10/09 00:15:17;;;;;;;7.93;2.73;;;14.10;41.00;;;;;;5086957;28;20497;-71
2023/10/09 00:17:46;;;;;;;6.88;2.90;;;14.10;40.90;;;;;;5087899;28;20416;-72
2023/10/09 00:20:25;;;;;;;7.38;3.10;;;14.10;41.70;;;;;;5086023;28;20497;-72
2023/10/09 00:22:51;;;;;;;6.88;2.80;;;14.10;42.00;;;;;;5086246;28;20980;-71
2023/10/09 00:25:29;;;;;;;10.07;3.13;;;14.10;42.30;;;;;;5086763;28;20406;-71
2023/10/09 00:27:55;;;;;;;6.78;2.70;;;14.10;42.00;;;;;;5087474;28;20398;-71
2023/10/09 00:30:29;;;;;;;7.68;2.90;;;14.10;42.70;;;;;;5087589;28;20406;-71
2023/10/09 00:35:36;;;;;;;6.20;2.80;;;14.10;43.10;;;;;;5087313;28;20850;-72
2023/10/09 00:38:13;;;;;;;7.55;3.30;;;14.20;42.90;;;;;;5087367;28;20394;-72
2023/10/09 00:40:45;;;;;;;7.22;3.05;;;14.10;43.00;;;;;;5087395;28;20447;-72
2023/10/09 00:43:13;;;;;;;6.68;2.90;;;14.10;42.70;;;;;;5082907;28;20437;-71
2023/10/09 00:45:40;;;;;;;6.47;3.10;;;14.10;43.00;;;;;;5089277;28;20423;-71
2023/10/09 00:48:08;;;;;;;7.88;3.60;;;14.20;43.50;;;;;;5089947;28;20473;-71
2023/10/09 00:50:39;;;;;;;7.97;3.00;;;14.10;43.30;;;;;;5090740;28;20750;-71
2023/10/09 00:53:12;;;;;;;8.02;3.00;;;14.10;43.60;;;;;;5090693;28;20401;-72
2023/10/09 00:55:45;;;;;;;7.35;3.30;;;14.10;43.90;;;;;;5087073;28;20402;-71
2023/10/09 00:58:14;;;;;;;9.77;3.40;;;14.10;43.90;;;;;;5090612;28;20409;-72
2023/10/09 01:03:22;;;;;;;7.82;3.47;;;14.10;44.70;;;;;;5090337;28;20402;-71
2023/10/09 01:05:58;;;;;;;8.37;3.50;;;14.10;45.10;;;;;;5080533;28;20402;-71
2023/10/09 01:08:43;;;;;;;8.77;3.40;;;14.00;45.50;;;;;;5089535;28;20398;-72
2023/10/09 01:11:29;;;;;;;7.85;3.22;;;14.00;45.90;;;;;;5114105;27;20414;-72
2023/10/09 01:14:11;;;;;;;9.57;3.78;;;14.00;46.70;;;;;;5083654;28;20407;-73
2023/10/09 01:16:41;;;;;;;6.30;3.30;;;14.10;47.10;;;;;;5085902;28;20772;-70
2023/10/09 01:19:13;;;;;;;10.75;3.88;;;14.10;47.50;;;;;;5090492;28;20434;-70
2023/10/09 01:21:42;;;;;;;8.90;3.75;;;14.10;47.80;;;;;;5089618;28;20425;-71
2023/10/09 01:24:08;;;;;;;9.75;3.90;;;14.00;48.10;;;;;;5088480;28;20438;-70
2023/10/09 01:26:39;;;;;;;10.00;3.97;;;14.10;48.60;;;;;;5090090;28;20421;-70
2023/10/09 01:29:14;;;;;;;7.13;3.80;;;14.10;48.80;;;;;;5082620;28;21010;-71
2023/10/09 01:32:00;;;;;;;8.40;4.45;;;14.10;48.70;;;;;;5089408;28;20417;-70
2023/10/09 01:37:11;;;;;;;11.98;4.90;;;14.10;50.40;;;;;;5083207;28;20812;-71
2023/10/09 01:39:41;;;;;;;10.73;4.53;;;14.10;50.70;;;;;;5089296;28;20812;-70
2023/10/09 01:42:07;;;;;;;11.35;4.90;;;14.10;50.90;;;;;;5088454;28;20482;-71
2023/10/09 01:44:43;;;;;;;12.52;4.90;;;14.10;51.10;;;;;;5089501;28;20806;-71
2023/10/09 01:47:13;;;;;;;12.93;5.22;;;14.10;51.60;;;;;;5087931;28;20451;-70
2023/10/09 01:49:43;;;;;;;13.25;6.00;;;14.10;52.10;;;;;;5089661;28;20481;-70
2023/10/09 01:52:15;;;;;;;12.23;5.72;;;14.10;52.50;;;;;;5088066;28;20405;-71
2023/10/09 01:54:46;;;;;;;13.32;6.18;;;14.10;52.40;;;;;;5081046;28;20843;-71
2023/10/09 01:57:12;;;;;;;15.23;5.85;;;14.10;53.10;;;;;;5089195;28;20398;-70
2023/10/09 01:59:49;;;;;;;13.07;6.65;;;14.10;53.30;;;;;;5089404;28;20394;-71
2023/10/09 02:02:25;;;;;;;13.85;6.10;;;14.10;54.80;;;;;;5089211;28;20485;-70
2023/10/09 02:07:40;;;;;;;17.35;7.78;;;14.10;54.90;;;;;;5088620;28;20472;-70
2023/10/09 02:13:10;;;;;;;18.63;8.38;;;14.10;55.70;;;;;;5084070;28;20428;-70
2023/10/09 02:15:45;;;;;;;15.73;7.88;;;14.10;55.70;;;;;;5089405;28;20504;-70
2023/10/09 02:21:01;;;;;;;20.17;8.43;;;14.10;56.60;;;;;;5088253;28;20410;-71
2023/10/09 02:23:30;;;;;;;22.00;9.40;;;14.10;57.30;;;;;;5087449;28;20401;-70
2023/10/09 02:25:57;;;;;;;21.73;9.90;;;14.10;57.60;;;;;;5088778;28;20402;-71
2023/10/09 02:28:23;;;;;;;22.63;10.88;;;14.10;57.30;;;;;;5089125;28;20398;-71
2023/10/09 02:30:49;;;;;;;21.73;10.57;;;14.10;57.70;;;;;;5088363;28;20413;-71
2023/10/09 02:33:20;;;;;;;27.52;11.80;;;14.10;57.80;;;;;;5087886;28;20410;-70
2023/10/09 02:35:51;;;;;;;30.77;12.50;;;14.10;58.60;;;;;;5087830;28;20646;-70
2023/10/09 02:38:17;;;;;;;27.58;12.32;;;14.10;59.00;;;;;;5087220;28;20399;-70
2023/10/09 02:43:47;;;;;;;33.47;13.75;;;14.10;60.30;;;;;;5087578;28;20961;-71
2023/10/09 02:46:18;;;;;;;33.35;15.07;;;14.10;61.10;;;;;;5077964;28;20904;-71
2023/10/09 02:48:50;;;;;;;33.50;14.55;;;14.10;61.60;;;;;;5088209;28;20457;-70
2023/10/09 02:51:31;;;;;;;29.50;14.10;;;14.10;62.10;;;;;;5088499;28;20977;-70
2023/10/09 02:53:59;;;;;;;34.45;14.77;;;14.10;62.20;;;;;;5086919;28;20477;-70
2023/10/09 02:56:41;;;;;;;31.98;14.77;;;14.10;62.30;;;;;;5088164;28;20402;-70
2023/10/09 02:59:07;;;;;;;32.75;15.30;;;14.10;62.80;;;;;;5087135;28;20402;-70
2023/10/09 03:01:38;;;;;;;31.83;15.17;;;14.10;63.30;;;;;;5086405;28;20426;-70
2023/10/09 03:04:05;;;;;;;34.85;15.15;;;14.10;63.60;;;;;;5088616;28;20814;-70
2023/10/09 03:06:34;;;;;;;32.38;14.60;;;14.10;63.60;;;;;;5087868;28;20831;-70
2023/10/09 03:09:00;;;;;;;32.47;14.75;;;14.10;64.60;;;;;;5086502;28;20429;-71
2023/10/09 03:11:26;;;;;;;33.73;15.03;;;14.10;65.40;;;;;;5087821;28;20404;-70
2023/10/09 03:13:53;;;;;;;34.20;15.43;;;14.00;65.00;;;;;;5088372;28;20579;-70
2023/10/09 03:16:19;;;;;;;31.73;14.73;;;14.10;65.80;;;;;;5087663;28;20518;-71
2023/10/09 03:18:52;;;;;;;34.05;15.52;;;14.10;65.70;;;;;;5088064;28;20403;-70
2023/10/09 03:21:21;;;;;;;34.47;15.75;;;14.10;66.40;;;;;;5087545;28;21011;-70
2023/10/09 03:23:51;;;;;;;32.60;16.07;;;14.00;67.00;;;;;;5120426;27;20406;-71
2023/10/09 03:26:20;;;;;;;32.85;16.75;;;14.00;67.40;;;;;;5084689;28;20418;-71
2023/10/09 03:28:49;;;;;;;40.83;16.75;;;14.10;68.00;;;;;;5087612;28;20400;-70
2023/10/09 03:31:15;;;;;;;37.90;17.75;;;14.10;68.80;;;;;;5088295;28;20405;-71
2023/10/09 03:33:41;;;;;;;38.67;18.03;;;14.10;68.60;;;;;;5087241;28;20416;-71
2023/10/09 03:36:09;;;;;;;38.47;17.90;;;14.10;68.60;;;;;;5086231;28;20401;-70
2023/10/09 03:38:38;;;;;;;41.22;18.40;;;14.10;69.20;;;;;;5088089;28;20398;-71
2023/10/09 03:41:05;;;;;;;42.55;18.75;;;14.10;69.90;;;;;;5086013;28;20954;-70
2023/10/09 03:43:37;;;;;;;45.53;19.77;;;14.10;70.20;;;;;;5072746;28;20506;-70
2023/10/09 03:46:05;;;;;;;45.63;20.25;;;14.10;70.60;;;;;;5087954;28;20397;-71
2023/10/09 03:48:36;;;;;;;46.22;20.10;;;14.10;71.00;;;;;;5087684;28;20421;-71
2023/10/09 03:51:13;;;;;;;44.70;20.58;;;14.10;71.70;;;;;;5087508;28;20398;-71
2023/10/09 03:53:39;;;;;;;44.92;20.23;;;14.10;72.60;;;;;;5087526;28;20398;-71
2023/10/09 03:56:15;;;;;;;50.33;21.83;;;14.10;73.00;;;;;;5087687;28;20474;-71
2023/10/09 03:58:45;;;;;;;51.22;22.80;;;14.10;73.20;;;;;;5087496;28;20485;-70
2023/10/09 04:01:28;;;;;;;50.75;22.42;;;14.10;73.90;;;;;;5086128;28;20969;-70
2023/10/09 04:03:55;;;;;;;54.88;24.15;;;14.10;74.40;;;;;;5087326;28;20402;-71
2023/10/09 04:06:28;;;;;;;50.42;23.30;;;14.10;74.70;;;;;;5086277;28;20947;-71
2023/10/09 04:08:54;;;;;;;51.28;23.63;;;14.20;75.20;;;;;;5087641;28;20405;-71
2023/10/09 04:11:23;;;;;;;54.45;24.98;;;14.20;75.50;;;;;;5086831;28;20443;-72
2023/10/09 04:13:49;;;;;;;53.22;23.95;;;14.20;76.10;;;;;;5074950;28;20406;-71
2023/10/09 04:19:05;;;;;;;53.37;23.43;;;14.20;77.10;;;;;;5087169;28;20497;-71
2023/10/09 04:21:34;;;;;;;56.42;24.92;;;14.30;77.40;;;;;;5090996;28;20425;-71
2023/10/09 04:26:46;;;;;;;56.13;24.17;;;14.30;77.70;;;;;;5089579;28;20409;-73
2023/10/09 04:29:37;;;;;;;53.78;25.48;;;14.30;78.30;;;;;;5090794;28;20394;-73
2023/10/09 04:32:07;;;;;;;56.40;25.08;;;14.30;78.20;;;;;;5081929;28;20938;-73
2023/10/09 04:34:38;;;;;;;55.65;24.65;;;14.30;78.70;;;;;;5088620;28;20904;-70
2023/10/09 04:37:36;;;;;;;56.95;25.35;;;14.30;78.70;;;;;;5091020;28;20458;-70
2023/10/09 04:40:01;;;;;;;62.58;27.02;;;14.40;79.20;;;;;;5077743;28;20406;-72
2023/10/09 04:42:36;;;;;;;64.20;27.37;;;14.40;78.80;;;;;;5090054;28;20429;-71
2023/10/09 04:47:35;;;;;;;65.95;28.52;;;14.40;80.00;;;;;;5090345;28;20410;-71
2023/10/09 04:50:36;;;;;;;69.75;28.20;;;14.40;80.30;;;;;;5090419;28;20406;-71
2023/10/09 04:53:13;;;;;;;68.90;28.13;;;14.40;80.70;;;;;;5090479;28;20455;-72
2023/10/09 04:55:44;;;;;;;73.70;28.38;;;14.40;81.10;;;;;;5088651;28;20417;-71
2023/10/09 04:58:13;;;;;;;75.03;29.10;;;14.40;81.20;;;;;;5090091;28;20861;-71
2023/10/09 05:03:12;;;;;;;71.88;29.55;;;14.40;81.40;;;;;;5090553;28;20501;-71
2023/10/09 05:08:29;;;;;;;72.57;29.08;;;14.50;82.10;;;;;;5080191;28;20435;-71
2023/10/09 05:16:25;;;;;;;70.95;28.65;;;14.50;83.00;;;;;;5090318;28;20756;-71
2023/10/09 05:18:59;;;;;;;70.97;29.42;;;14.50;83.70;;;;;;5088936;28;20402;-71
2023/10/09 05:21:44;;;;;;;75.13;29.60;;;14.50;83.50;;;;;;5089405;28;20430;-71
2023/10/09 05:31:57;;;;;;;71.70;29.23;;;14.70;85.60;;;;;;5087896;28;20409;-72
2023/10/09 05:34:23;;;;;;;60.33;28.35;;;14.70;85.80;;;;;;5087386;28;20402;-72
2023/10/09 05:36:49;;;;;;;63.53;26.85;;;14.80;85.60;;;;;;5089431;28;20745;-71
2023/10/09 05:39:22;;;;;;;66.90;27.55;;;14.90;86.30;;;;;;5089236;28;20414;-71
2023/10/09 05:41:59;;;;;;;65.45;27.00;;;14.90;86.50;;;;;;5088799;28;20426;-71
2023/10/09 06:03:23;;;;;;;43.53;20.45;;;15.30;88.00;;;;;;5085775;28;20420;-71
2023/10/09 06:14:12;;;;;;;42.65;20.02;;;15.40;88.60;;;;;;5084676;28;20493;-71
2023/10/09 06:24:35;;;;;;;33.08;16.95;;;15.50;89.30;;;;;;5088091;28;20402;-72
2023/10/09 06:29:36;;;;;;;33.47;16.30;;;15.50;90.00;;;;;;5087655;28;20406;-72
2023/10/09 06:34:46;;;;;;;36.38;15.98;;;15.50;90.10;;;;;;5087636;28;20409;-72
2023/10/09 06:45:11;;;;;;;30.02;14.18;;;15.60;90.20;;;;;;5092379;28;20404;-70
2023/10/09 06:47:55;;;;;;;31.58;13.90;;;15.60;90.00;;;;;;5088837;28;20441;-70
2023/10/09 06:55:51;;;;;;;30.45;13.20;;;15.60;90.30;;;;;;5087561;28;20414;-70
2023/10/09 06:58:26;;;;;;;28.10;13.03;;;15.60;90.60;;;;;;5088429;28;20732;-71
2023/10/09 07:03:32;;;;;;;28.77;13.00;;;15.70;90.80;;;;;;5088054;28;20401;-71
2023/10/09 07:06:09;;;;;;;29.98;12.55;;;15.70;91.00;;;;;;5079391;28;20483;-71
2023/10/09 07:08:44;;;;;;;30.15;12.52;;;15.70;91.10;;;;;;5084932;28;20401;-71
2023/10/09 07:11:56;;;;;;;30.10;12.73;;;15.70;91.20;;;;;;5087538;28;20408;-72
2023/10/09 07:17:15;;;;;;;27.00;11.90;;;15.70;91.40;;;;;;5086540;28;20420;-72
2023/10/09 07:27:43;;;;;;;22.38;11.43;;;15.70;91.40;;;;;;5087939;28;20447;-72
2023/10/09 07:38:08;;;;;;;30.33;11.63;;;15.80;91.40;;;;;;5086497;28;20437;-71
2023/10/09 07:40:56;;;;;;;26.80;11.40;;;15.80;91.50;;;;;;5087365;28;20446;-72
2023/10/09 07:43:28;;;;;;;28.42;11.60;;;15.80;91.50;;;;;;5077447;28;20465;-72
2023/10/09 07:48:38;;;;;;;28.55;11.07;;;15.90;91.80;;;;;;5087826;28;21017;-72
2023/10/09 07:51:11;;;;;;;25.80;11.07;;;15.80;91.80;;;;;;5081700;28;20407;-72
2023/10/09 07:53:43;;;;;;;24.65;11.18;;;15.90;91.60;;;;;;5082468;28;20447;-72
2023/10/09 07:56:09;;;;;;;26.02;11.18;;;15.90;91.70;;;;;;5091668;28;20398;-72
2023/10/09 07:58:45;;;;;;;25.20;10.97;;;15.90;91.80;;;;;;5091661;28;21117;-72
2023/10/09 08:01:35;;;;;;;28.55;11.32;;;15.90;91.80;;;;;;5091466;28;20418;-72
2023/10/09 08:04:14;;;;;;;28.08;10.85;;;15.90;91.90;;;;;;5091155;28;20410;-72
2023/10/09 08:06:44;;;;;;;30.13;11.60;;;15.90;92.00;;;;;;5090217;28;21141;-72
2023/10/09 08:17:20;;;;;;;24.50;10.63;;;16.00;92.00;;;;;;5089792;28;20986;-72
2023/10/09 08:19:54;;;;;;;25.88;10.95;;;16.00;91.60;;;;;;5090929;28;20473;-73
2023/10/09 08:24:57;;;;;;;27.70;10.00;;;16.00;92.10;;;;;;5091275;28;20826;-72
2023/10/09 08:30:28;;;;;;;23.33;9.88;;;16.00;91.90;;;;;;5086347;28;20408;-72
2023/10/09 08:33:03;;;;;;;23.50;10.25;;;16.00;91.90;;;;;;5086422;28;20500;-72
2023/10/09 08:35:33;;;;;;;28.48;11.07;;;16.10;91.90;;;;;;5091208;28;20409;-72
2023/10/09 08:38:07;;;;;;;26.05;10.18;;;16.10;92.10;;;;;;5090275;28;20409;-72
2023/10/09 08:40:38;;;;;;;26.45;10.13;;;16.20;92.40;;;;;;5090256;28;20420;-72
2023/10/09 08:43:21;;;;;;;28.20;10.43;;;16.20;92.50;;;;;;5090110;28;20428;-72
2023/10/09 08:45:51;;;;;;;25.40;10.48;;;16.20;92.30;;;;;;5090253;28;20424;-72
2023/10/09 08:48:18;;;;;;;26.40;10.20;;;16.20;92.30;;;;;;5089591;28;20927;-69
2023/10/09 08:50:53;;;;;;;25.30;9.95;;;16.20;92.20;;;;;;5089839;28;20406;-68
2023/10/09 08:53:20;;;;;;;25.13;10.15;;;16.20;91.90;;;;;;5090808;28;20899;-70
2023/10/09 08:55:46;;;;;;;24.60;9.43;;;16.20;92.20;;;;;;5089837;28;20427;-70
2023/10/09 08:58:30;;;;;;;26.27;10.25;;;16.30;92.40;;;;;;5090641;28;20398;-70
2023/10/09 09:00:58;;;;;;;26.00;10.38;;;16.30;92.40;;;;;;5078915;28;20400;-71
2023/10/09 09:03:25;;;;;;;22.75;9.68;;;16.30;92.30;;;;;;5090260;28;20922;-68
2023/10/09 09:06:02;;;;;;;28.45;10.07;;;16.20;92.40;;;;;;5089423;28;20438;-69
2023/10/09 09:08:29;;;;;;;26.90;10.37;;;16.30;92.60;;;;;;5090109;28;20434;-69
2023/10/09 09:14:02;;;;;;;25.17;10.82;;;16.30;92.60;;;;;;5089967;28;20452;-71
2023/10/09 09:16:32;;;;;;;26.50;10.10;;;16.40;92.50;;;;;;5087329;28;20830;-71
2023/10/09 09:21:38;;;;;;;24.05;9.95;;;16.40;92.80;;;;;;5088758;28;20487;-69
2023/10/09 09:27:12;;;;;;;24.67;9.77;;;16.50;93.00;;;;;;5087261;28;20413;-70
2023/10/09 09:29:39;;;;;;;32.92;11.35;;;16.60;92.70;;;;;;5087016;28;20421;-71
2023/10/09 09:32:17;;;;;;;27.55;10.27;;;16.60;92.80;;;;;;5090499;28;20490;-71
2023/10/09 09:35:01;;;;;;;25.23;9.68;;;16.70;93.00;;;;;;5089606;28;20459;-67
2023/10/09 09:37:35;;;;;;;19.90;8.98;;;16.70;92.80;;;;;;5088189;28;20485;-70
2023/10/09 09:40:41;;;;;;;25.65;9.70;;;16.70;92.70;;;;;;5089681;28;20916;-69
2023/10/09 09:43:05;;;;;;;22.05;8.48;;;16.70;92.60;;;;;;5074787;28;20456;-71
2023/10/09 09:45:37;;;;;;;27.42;8.82;;;16.70;92.50;;;;;;5089229;28;20868;-70
2023/10/09 09:48:15;;;;;;;25.35;8.98;;;16.70;92.20;;;;;;5089622;28;20433;-71
2023/10/09 09:50:44;;;;;;;21.45;8.00;;;16.70;92.70;;;;;;5089214;28;20417;-71
2023/10/09 09:53:23;;;;;;;22.25;7.90;;;16.70;92.20;;;;;;5089635;28;20405;-71
2023/10/09 09:55:58;;;;;;;20.73;7.63;;;16.70;92.50;;;;;;5088133;28;20427;-72
2023/10/09 09:58:32;;;;;;;19.77;8.00;;;16.70;92.50;;;;;;5088350;28;20818;-72
2023/10/09 10:01:17;;;;;;;18.85;7.32;;;16.70;92.70;;;;;;5077868;28;20955;-72
2023/10/09 10:04:01;;;;;;;18.90;7.20;;;16.70;92.80;;;;;;5087882;28;20808;-72
2023/10/09 10:06:32;;;;;;;23.60;8.00;;;16.80;92.80;;;;;;5089544;28;20409;-73
2023/10/09 10:08:58;;;;;;;21.02;7.68;;;16.80;92.70;;;;;;5075957;28;20484;-73
2023/10/09 10:11:44;;;;;;;20.23;7.18;;;16.80;92.70;;;;;;5089392;28;20755;-73
2023/10/09 10:14:19;;;;;;;19.77;7.53;;;16.80;92.70;;;;;;5080414;28;20501;-73
2023/10/09 10:17:03;;;;;;;24.13;7.00;;;16.80;92.80;;;;;;5087568;28;20402;-73
2023/10/09 10:20:04;;;;;;;21.40;7.20;;;16.80;92.90;;;;;;5088607;28;20394;-72
2023/10/09 10:22:30;;;;;;;21.10;7.00;;;16.80;92.90;;;;;;5079998;28;20442;-67
2023/10/09 10:25:02;;;;;;;26.20;8.10;;;16.80;92.60;;;;;;5090971;28;20469;-69
2023/10/09 10:27:32;;;;;;;22.02;7.75;;;16.80;92.80;;;;;;5083546;28;20482;-69
2023/10/09 10:30:13;;;;;;;22.40;7.70;;;16.80;92.80;;;;;;5091050;28;20424;-69
2023/10/09 10:32:51;;;;;;;24.05;7.93;;;16.80;92.70;;;;;;5089771;28;20422;-73
2023/10/09 10:35:20;;;;;;;18.38;7.88;;;16.70;92.80;;;;;;5090704;28;20421;-71
2023/10/09 10:38:01;;;;;;;21.50;7.30;;;16.70;92.90;;;;;;5088807;28;20413;-69
2023/10/09 10:40:46;;;;;;;19.80;7.97;;;16.70;92.90;;;;;;5088941;28;20452;-72
2023/10/09 10:43:34;;;;;;;25.02;9.82;;;16.70;93.10;;;;;;5085795;28;20464;-72
2023/10/09 10:46:04;;;;;;;15.13;6.43;;;16.70;93.10;;;;;;5090619;28;20451;-70
2023/10/09 10:48:37;;;;;;;21.45;6.95;;;16.70;93.00;;;;;;5089922;28;20414;-69
2023/10/09 10:51:06;;;;;;;19.00;5.88;;;16.70;93.30;;;;;;5088579;28;20398;-69
2023/10/09 10:53:47;;;;;;;21.33;7.35;;;16.60;93.40;;;;;;5088420;28;20401;-69
2023/10/09 10:58:47;;;;;;;20.58;7.10;;;16.60;93.50;;;;;;5091433;28;20464;-70
2023/10/09 11:01:15;;;;;;;19.63;7.15;;;16.70;93.80;;;;;;5088724;28;20410;-70
2023/10/09 11:03:56;;;;;;;22.83;7.57;;;16.70;93.90;;;;;;5087726;28;20406;-70
2023/10/09 11:06:38;;;;;;;15.35;5.38;;;16.70;94.00;;;;;;5089321;28;20461;-70
2023/10/09 11:09:20;;;;;;;15.90;5.10;;;16.80;93.90;;;;;;5088014;28;20437;-70
2023/10/09 11:11:47;;;;;;;20.70;5.50;;;16.90;94.10;;;;;;5086477;28;20414;-69
2023/10/09 11:14:26;;;;;;;16.20;5.35;;;16.90;94.20;;;;;;5080479;28;20465;-70
2023/10/09 11:16:57;;;;;;;17.70;5.32;;;17.00;94.10;;;;;;5085297;28;20445;-69
2023/10/09 11:19:32;;;;;;;18.88;5.00;;;17.00;94.10;;;;;;5088265;28;20445;-70
2023/10/09 11:24:34;;;;;;;13.73;4.65;;;17.00;93.70;;;;;;5097753;28;20420;-72
2023/10/09 11:27:06;;;;;;;13.73;4.30;;;16.90;93.90;;;;;;5075490;28;20406;-70
2023/10/09 11:32:18;;;;;;;15.05;5.13;;;16.90;93.90;;;;;;5087794;28;20499;-69
2023/10/09 11:34:53;;;;;;;19.60;5.70;;;16.90;93.90;;;;;;5085264;28;20410;-70
2023/10/09 11:40:00;;;;;;;13.27;4.40;;;17.00;94.10;;;;;;5086542;28;20414;-69
2023/10/09 11:42:38;;;;;;;16.58;5.05;;;17.00;93.70;;;;;;5087470;28;20430;-69
2023/10/09 11:45:19;;;;;;;18.98;5.10;;;17.00;93.80;;;;;;5092858;28;20447;-70
2023/10/09 11:47:58;;;;;;;18.17;5.50;;;17.00;93.70;;;;;;5085847;28;20421;-69
2023/10/09 11:50:56;;;;;;;16.52;4.68;;;17.00;93.60;;;;;;5086166;28;20465;-69
2023/10/09 11:55:49;;;;;;;15.87;4.67;;;17.00;93.50;;;;;;5090147;28;20410;-69
2023/10/09 11:58:22;;;;;;;16.55;5.10;;;17.00;93.60;;;;;;5087064;28;20390;-71
2023/10/09 12:00:51;;;;;;;16.00;4.68;;;16.90;93.40;;;;;;5094269;28;20406;-72
2023/10/09 12:03:17;;;;;;;17.95;4.55;;;17.00;93.40;;;;;;5089554;28;20464;-70
2023/10/09 12:05:44;;;;;;;17.50;4.60;;;17.00;93.30;;;;;;5087052;28;20430;-69
2023/10/09 12:08:11;;;;;;;18.25;4.97;;;17.00;93.00;;;;;;5087451;28;20394;-70
2023/10/09 12:10:40;;;;;;;14.95;4.75;;;16.90;93.00;;;;;;5086871;28;20402;-70
2023/10/09 12:13:07;;;;;;;15.87;4.07;;;16.90;92.90;;;;;;5087541;28;20394;-71
2023/10/09 12:15:39;;;;;;;12.75;4.10;;;16.90;92.80;;;;;;5087877;28;20406;-70
2023/10/09 12:18:08;;;;;;;15.20;4.25;;;16.90;92.80;;;;;;5087057;28;20412;-70
2023/10/09 12:20:35;;;;;;;18.50;4.78;;;17.00;92.80;;;;;;5087548;28;20837;-70
2023/10/09 12:23:05;;;;;;;15.63;4.53;;;16.90;92.90;;;;;;5087104;28;20850;-70
2023/10/09 12:25:35;;;;;;;13.75;4.50;;;17.00;92.90;;;;;;5087203;28;20907;-71
2023/10/09 12:28:03;;;;;;;11.90;4.00;;;17.00;92.80;;;;;;5087385;28;20397;-69
2023/10/09 12:30:30;;;;;;;13.73;4.10;;;17.10;92.50;;;;;;5087594;28;20429;-70
2023/10/09 12:32:58;;;;;;;12.68;3.55;;;17.00;91.90;;;;;;5086615;28;20445;-70
2023/10/09 12:35:25;;;;;;;12.30;3.53;;;17.00;91.60;;;;;;5087430;28;20416;-70
2023/10/09 12:37:54;;;;;;;12.95;4.07;;;17.00;91.30;;;;;;5086129;28;20975;-72
2023/10/09 12:40:24;;;;;;;16.25;4.53;;;17.00;91.10;;;;;;5086766;28;20398;-72
2023/10/09 12:42:55;;;;;;;13.97;4.40;;;17.00;90.90;;;;;;5089137;28;20951;-73
2023/10/09 12:45:26;;;;;;;15.00;4.30;;;17.00;90.70;;;;;;5090936;28;20409;-72
2023/10/09 12:48:09;;;;;;;17.40;4.80;;;16.90;90.60;;;;;;5089617;28;20836;-71
2023/10/09 12:50:41;;;;;;;18.50;5.10;;;16.90;90.50;;;;;;5090409;28;20402;-70
2023/10/09 12:53:08;;;;;;;18.65;4.68;;;16.90;90.50;;;;;;5090639;28;20406;-72
2023/10/09 12:55:40;;;;;;;16.38;4.82;;;16.90;90.40;;;;;;5090543;28;20434;-70
2023/10/09 12:58:07;;;;;;;14.10;3.70;;;16.90;90.30;;;;;;5090741;28;20918;-71
2023/10/09 13:00:44;;;;;;;13.00;3.67;;;16.80;90.20;;;;;;5090512;28;20398;-73
2023/10/09 13:03:16;;;;;;;13.77;3.45;;;16.80;90.10;;;;;;5091154;28;20895;-73
2023/10/09 13:05:51;;;;;;;11.70;2.90;;;16.80;90.10;;;;;;5090230;28;20505;-73
2023/10/09 13:08:34;;;;;;;11.82;3.08;;;16.80;89.60;;;;;;5090385;28;20466;-72
2023/10/09 13:11:10;;;;;;;11.60;2.67;;;16.80;89.30;;;;;;5090888;28;20482;-71
2023/10/09 13:13:41;;;;;;;9.47;3.00;;;16.80;88.90;;;;;;5088219;28;20410;-71
2023/10/09 13:16:13;;;;;;;9.65;2.88;;;16.90;88.80;;;;;;5090073;28;20418;-70
2023/10/09 13:18:40;;;;;;;13.13;3.03;;;16.80;88.70;;;;;;5090229;28;20443;-70
2023/10/09 13:21:05;;;;;;;11.93;3.10;;;16.80;88.50;;;;;;5092183;28;21323;-70
2023/10/09 13:23:46;;;;;;;14.73;3.30;;;16.80;88.20;;;;;;5089137;28;20409;-72
2023/10/09 13:26:24;;;;;;;10.80;3.10;;;16.80;88.30;;;;;;5088926;28;20433;-71
2023/10/09 13:28:54;;;;;;;14.32;3.10;;;16.80;88.30;;;;;;5087882;28;20413;-71
2023/10/09 13:31:21;;;;;;;11.73;3.13;;;16.90;88.40;;;;;;5086434;28;20467;-70
2023/10/09 13:33:47;;;;;;;12.68;3.63;;;16.80;88.10;;;;;;5089182;28;20386;-70
2023/10/09 13:36:19;;;;;;;10.87;3.17;;;16.80;88.00;;;;;;5089788;28;20481;-71
2023/10/09 13:38:46;;;;;;;10.57;3.10;;;16.80;87.60;;;;;;5092193;28;20894;-70
2023/10/09 13:41:12;;;;;;;11.30;3.17;;;16.80;87.70;;;;;;5091042;28;20463;-70
2023/10/09 13:43:42;;;;;;;9.93;2.85;;;16.80;87.80;;;;;;5089634;28;20417;-70
2023/10/09 13:46:12;;;;;;;13.07;2.80;;;16.80;87.90;;;;;;5087985;28;20923;-70
2023/10/09 13:48:41;;;;;;;10.68;2.70;;;16.80;87.70;;;;;;5089282;28;20394;-70
2023/10/09 13:51:23;;;;;;;12.98;3.15;;;16.80;87.40;;;;;;5089430;28;20488;-70
2023/10/09 13:53:49;;;;;;;10.15;2.25;;;16.70;87.80;;;;;;5087819;28;20915;-71
2023/10/09 13:56:20;;;;;;;10.93;2.55;;;16.70;86.90;;;;;;5086039;28;20416;-70
2023/10/09 13:58:46;;;;;;;12.37;2.93;;;16.70;86.50;;;;;;5086352;28;20410;-70
2023/10/09 14:01:20;;;;;;;12.05;2.65;;;16.70;86.50;;;;;;5088726;28;20505;-73
2023/10/09 14:03:49;;;;;;;10.20;2.50;;;16.70;86.80;;;;;;5093686;28;20406;-70
2023/10/09 14:06:19;;;;;;;13.13;2.83;;;16.60;86.70;;;;;;5089285;28;20488;-70
2023/10/09 14:08:45;;;;;;;10.20;2.10;;;16.60;86.90;;;;;;5089460;28;20497;-71
2023/10/09 14:11:13;;;;;;;11.30;2.58;;;16.70;86.90;;;;;;5094393;28;20874;-70
2023/10/09 14:13:42;;;;;;;9.93;2.00;;;16.70;86.90;;;;;;5093532;28;20444;-71
2023/10/09 14:16:23;;;;;;;10.48;2.00;;;16.70;86.90;;;;;;5092452;27;20454;-71
2023/10/09 14:18:53;;;;;;;9.45;1.60;;;16.70;85.80;;;;;;5089282;28;20425;-71
2023/10/09 14:21:20;;;;;;;8.45;1.90;;;16.80;85.80;;;;;;5088618;28;20478;-71
2023/10/09 14:23:48;;;;;;;7.50;1.60;;;16.80;85.10;;;;;;5095005;28;20965;-71
2023/10/09 14:26:14;;;;;;;10.07;1.53;;;16.90;84.70;;;;;;5088621;28;20402;-71
2023/10/09 14:28:42;;;;;;;9.60;1.45;;;16.90;84.70;;;;;;5084101;28;20458;-71
2023/10/09 14:31:12;;;;;;;8.33;1.60;;;17.00;84.70;;;;;;5094129;28;20522;-71
2023/10/09 14:33:38;;;;;;;10.52;2.05;;;17.00;83.90;;;;;;5094297;28;20461;-72
2023/10/09 14:36:05;;;;;;;8.10;2.20;;;17.10;83.50;;;;;;5092135;28;20426;-72
2023/10/09 14:38:33;;;;;;;10.05;2.30;;;17.00;82.50;;;;;;5089642;28;20915;-72
2023/10/09 14:40:59;;;;;;;11.35;2.10;;;17.00;82.40;;;;;;5087116;28;20410;-71
2023/10/09 14:43:33;;;;;;;11.15;2.38;;;17.10;82.80;;;;;;5090851;28;20414;-72
2023/10/09 14:45:58;;;;;;;9.23;1.88;;;17.10;82.10;;;;;;5099538;28;20409;-72
2023/10/09 14:48:28;;;;;;;6.43;1.23;;;17.10;81.20;;;;;;5096263;28;20414;-72
2023/10/09 14:50:54;;;;;;;7.70;1.35;;;17.00;79.80;;;;;;5076412;28;20410;-72
2023/10/09 14:53:21;;;;;;;6.80;1.10;;;17.00;78.30;;;;;;5089702;28;20847;-71
2023/10/09 14:55:53;;;;;;;6.03;0.93;;;17.00;78.30;;;;;;5088764;28;20433;-71
2023/10/09 14:58:19;;;;;;;6.90;0.90;;;17.00;78.00;;;;;;5087127;28;20402;-72
2023/10/09 15:00:47;;;;;;;6.05;0.75;;;17.00;78.00;;;;;;5085227;28;20411;-71
2023/10/09 15:03:15;;;;;;;5.85;0.85;;;17.10;75.40;;;;;;5088793;28;20479;-71
2023/10/09 15:05:42;;;;;;;5.53;0.93;;;17.00;73.10;;;;;;5088381;28;20768;-72
2023/10/09 15:08:10;;;;;;;4.82;0.75;;;17.00;73.40;;;;;;5093422;28;20437;-72
2023/10/09 15:10:47;;;;;;;6.43;1.00;;;17.00;73.70;;;;;;5090730;28;20431;-72
2023/10/09 15:13:13;;;;;;;5.93;0.80;;;17.00;73.00;;;;;;5088240;28;20410;-72
2023/10/09 15:15:45;;;;;;;7.05;1.17;;;16.90;72.10;;;;;;5086635;28;20413;-72
2023/10/09 15:18:15;;;;;;;5.53;1.05;;;16.90;72.00;;;;;;5095975;28;20441;-72
2023/10/09 15:20:41;;;;;;;6.32;0.98;;;16.90;73.00;;;;;;5089152;28;20500;-73
2023/10/09 15:23:08;;;;;;;8.15;1.55;;;16.90;72.90;;;;;;5088467;28;20450;-72
2023/10/09 15:25:34;;;;;;;8.98;1.00;;;16.80;73.30;;;;;;5088249;28;20463;-72
2023/10/09 15:28:02;;;;;;;5.43;1.13;;;16.80;74.00;;;;;;5089393;28;20409;-73
2023/10/09 15:30:29;;;;;;;9.88;1.60;;;16.70;74.80;;;;;;5090947;28;20420;-73
2023/10/09 15:32:56;;;;;;;8.48;1.45;;;16.80;75.60;;;;;;5086351;28;20406;-74
2023/10/09 15:35:22;;;;;;;8.35;1.00;;;16.70;76.30;;;;;;5089137;28;20410;-73
2023/10/09 15:37:52;;;;;;;7.80;1.30;;;16.80;76.40;;;;;;5092272;28;20415;-73
2023/10/09 15:40:24;;;;;;;9.02;1.20;;;16.70;76.80;;;;;;5082882;28;20818;-72